createdAt,value
2018-12-01T00:01:53.266Z,13.27
2018-12-01T00:03:57.794Z,24.87
2018-12-01T00:06:03.008Z,23.27
2018-12-01T00:08:07.547Z,12.37
2018-12-01T00:10:11.946Z,19.27
2018-12-01T00:12:16.248Z,21.07
2018-12-01T00:14:20.883Z,23.03
2018-12-01T00:16:25.213Z,14.97
2018-12-01T00:18:29.467Z,16.77
2018-12-01T00:20:35.708Z,15.80
2018-12-01T00:22:40.086Z,18.57
2018-12-01T00:24:44.311Z,12.93
2018-12-01T00:26:48.874Z,13.70
2018-12-01T00:28:53.360Z,22.37
2018-12-01T00:30:57.642Z,14.87
2018-12-01T00:33:01.918Z,23.40
2018-12-01T00:35:07.338Z,25.20
2018-12-01T00:37:11.710Z,14.10
2018-12-01T00:39:15.866Z,14.80
2018-12-01T00:41:20.273Z,14.43
2018-12-01T00:43:24.672Z,11.30
2018-12-01T00:45:29.095Z,14.27
2018-12-01T00:47:33.469Z,14.60
2018-12-01T00:49:37.920Z,29.23
2018-12-01T00:51:42.225Z,12.67
2018-12-01T00:53:46.644Z,13.83
2018-12-01T00:55:50.868Z,20.40
2018-12-01T00:57:55.143Z,17.13
2018-12-01T00:59:59.492Z,21.23
2018-12-01T01:02:04.052Z,18.20
2018-12-01T01:04:08.391Z,15.87
2018-12-01T01:06:12.942Z,21.00
2018-12-01T01:08:17.169Z,18.90
2018-12-01T01:10:22.313Z,16.23
2018-12-01T01:12:26.523Z,14.90
2018-12-01T01:14:30.715Z,21.47
2018-12-01T01:16:35.310Z,17.57
2018-12-01T01:18:39.750Z,23.33
2018-12-01T01:20:44.174Z,21.43
2018-12-01T01:22:48.751Z,18.30
2018-12-01T01:24:53.207Z,14.63
2018-12-01T01:26:57.435Z,19.30
2018-12-01T01:29:01.712Z,12.37
2018-12-01T01:31:06.481Z,22.20
2018-12-01T01:33:29.574Z,12.23
2018-12-01T01:35:33.938Z,18.87
2018-12-01T01:37:38.241Z,16.17
2018-12-01T01:39:42.450Z,16.00
2018-12-01T01:41:46.865Z,16.30
2018-12-01T01:43:51.189Z,13.10
2018-12-01T01:45:55.698Z,14.80
2018-12-01T01:47:59.981Z,14.10
2018-12-01T01:50:04.604Z,20.20
2018-12-01T01:52:08.845Z,19.13
2018-12-01T01:54:13.029Z,23.13
2018-12-01T01:56:17.487Z,12.70
2018-12-01T01:58:21.985Z,16.37
2018-12-01T02:00:26.522Z,23.67
2018-12-01T02:02:30.797Z,21.13
2018-12-01T02:04:35.213Z,15.67
2018-12-01T02:06:39.585Z,20.17
2018-12-01T02:08:43.729Z,18.37
2018-12-01T02:10:47.993Z,16.17
2018-12-01T02:12:52.379Z,18.30
2018-12-01T02:14:56.841Z,13.73
2018-12-01T02:17:01.150Z,16.30
2018-12-01T02:19:05.574Z,21.23
2018-12-01T02:21:10.014Z,14.00
2018-12-01T02:23:14.601Z,21.30
2018-12-01T02:25:19.311Z,15.23
2018-12-01T02:27:23.738Z,20.40
2018-12-01T02:29:28.492Z,27.63
2018-12-01T02:31:32.792Z,12.60
2018-12-01T02:33:36.935Z,17.53
2018-12-01T02:35:41.465Z,20.10
2018-12-01T02:37:45.845Z,18.67
2018-12-01T02:39:50.380Z,17.37
2018-12-01T02:41:54.828Z,22.30
2018-12-01T02:44:10.093Z,12.80
2018-12-01T02:46:25.268Z,15.50
2018-12-01T02:48:29.583Z,13.40
2018-12-01T02:50:33.977Z,18.80
2018-12-01T02:52:38.327Z,19.13
2018-12-01T02:54:42.770Z,17.47
2018-12-01T02:56:47.201Z,23.87
2018-12-01T02:58:51.616Z,16.47
2018-12-01T03:00:56.013Z,16.13
2018-12-01T03:03:00.333Z,18.80
2018-12-01T03:05:04.959Z,20.83
2018-12-01T03:07:09.171Z,19.93
2018-12-01T03:09:13.395Z,14.27
2018-12-01T03:11:17.556Z,27.33
2018-12-01T03:13:21.873Z,23.80
2018-12-01T03:15:26.532Z,17.97
2018-12-01T03:17:30.728Z,16.03
2018-12-01T03:19:35.033Z,12.20
2018-12-01T03:21:39.358Z,15.20
2018-12-01T03:23:43.648Z,14.37
2018-12-01T03:25:48.526Z,20.77
2018-12-01T03:27:53.842Z,12.97
2018-12-01T03:29:58.007Z,17.73
2018-12-01T03:32:02.283Z,16.97
2018-12-01T03:34:06.841Z,13.47
2018-12-01T03:36:11.253Z,22.73
2018-12-01T03:38:15.614Z,17.73
2018-12-01T03:40:20.827Z,11.73
2018-12-01T03:42:25.133Z,19.13
2018-12-01T03:44:29.388Z,19.30
2018-12-01T03:46:33.710Z,21.83
2018-12-01T03:48:38.122Z,19.33
2018-12-01T03:50:42.512Z,22.40
2018-12-01T03:52:46.768Z,13.80
2018-12-01T03:54:50.975Z,19.23
2018-12-01T03:56:55.265Z,20.40
2018-12-01T03:58:59.706Z,13.27
2018-12-01T04:01:04.101Z,18.50
2018-12-01T04:03:09.190Z,15.90
2018-12-01T04:05:13.479Z,12.67
2018-12-01T04:07:17.868Z,13.43
2018-12-01T04:09:23.409Z,13.60
2018-12-01T04:11:27.738Z,17.10
2018-12-01T04:13:32.018Z,18.70
2018-12-01T04:15:36.405Z,16.90
2018-12-01T04:17:40.758Z,19.40
2018-12-01T04:19:45.178Z,12.40
2018-12-01T04:21:49.538Z,16.63
2018-12-01T04:23:53.961Z,13.43
2018-12-01T04:25:58.475Z,17.03
2018-12-01T04:28:14.708Z,19.23
2018-12-01T04:30:20.984Z,15.07
2018-12-01T04:32:25.379Z,17.33
2018-12-01T04:34:29.897Z,17.57
2018-12-01T04:36:34.261Z,17.50
2018-12-01T04:38:38.400Z,18.53
2018-12-01T04:40:42.692Z,11.93
2018-12-01T04:42:47.720Z,15.37
2018-12-01T04:44:51.943Z,23.87
2018-12-01T04:46:56.252Z,25.30
2018-12-01T04:49:00.854Z,12.63
2018-12-01T04:51:05.565Z,13.13
2018-12-01T04:53:10.036Z,17.00
2018-12-01T04:55:15.438Z,13.27
2018-12-01T04:57:19.644Z,16.27
2018-12-01T04:59:23.989Z,16.30
2018-12-01T05:01:28.273Z,14.77
2018-12-01T05:03:32.422Z,11.77
2018-12-01T05:05:36.711Z,23.80
2018-12-01T05:07:41.003Z,11.20
2018-12-01T05:09:45.570Z,17.00
2018-12-01T05:11:49.759Z,17.20
2018-12-01T05:13:54.433Z,15.03
2018-12-01T05:15:58.888Z,17.93
2018-12-01T05:18:03.168Z,14.53
2018-12-01T05:20:11.080Z,16.93
2018-12-01T05:22:15.399Z,15.23
2018-12-01T05:24:19.633Z,22.43
2018-12-01T05:26:23.958Z,11.67
2018-12-01T05:28:28.272Z,13.93
2018-12-01T05:30:32.661Z,12.20
2018-12-01T05:32:37.555Z,16.13
2018-12-01T05:34:41.923Z,14.20
2018-12-01T05:36:46.653Z,17.80
2018-12-01T05:38:51.050Z,12.73
2018-12-01T05:40:55.381Z,18.70
2018-12-01T05:42:59.728Z,17.07
2018-12-01T05:45:04.306Z,11.50
2018-12-01T05:47:09.720Z,16.57
2018-12-01T05:49:14.060Z,18.23
2018-12-01T05:51:18.387Z,12.70
2018-12-01T05:53:22.810Z,15.70
2018-12-01T05:55:27.222Z,12.73
2018-12-01T05:57:31.579Z,16.30
2018-12-01T05:59:35.857Z,14.30
2018-12-01T06:01:40.262Z,11.93
2018-12-01T06:03:44.846Z,21.47
2018-12-01T06:05:49.197Z,16.03
2018-12-01T06:07:54.631Z,18.07
2018-12-01T06:09:59.188Z,15.50
2018-12-01T06:12:03.452Z,14.43
2018-12-01T06:14:07.685Z,18.03
2018-12-01T06:16:12.041Z,20.77
2018-12-01T06:18:16.309Z,22.70
2018-12-01T06:20:22.846Z,18.83
2018-12-01T06:22:27.112Z,13.73
2018-12-01T06:24:31.184Z,15.37
2018-12-01T06:26:35.637Z,14.30
2018-12-01T06:28:40.030Z,20.57
2018-12-01T06:30:44.460Z,19.33
2018-12-01T06:32:50.571Z,24.30
2018-12-01T06:34:54.698Z,13.30
2018-12-01T06:36:59.041Z,16.83
2018-12-01T06:39:03.336Z,17.53
2018-12-01T06:41:07.672Z,20.60
2018-12-01T06:43:12.074Z,21.13
2018-12-01T06:45:17.000Z,20.30
2018-12-01T06:47:21.463Z,10.40
2018-12-01T06:49:25.836Z,19.10
2018-12-01T06:51:30.456Z,17.53
2018-12-01T06:53:34.983Z,12.90
2018-12-01T06:55:39.375Z,16.67
2018-12-01T06:57:44.543Z,17.00
2018-12-01T06:59:49.162Z,15.47
2018-12-01T07:01:53.371Z,35.60
2018-12-01T07:03:57.807Z,24.70
2018-12-01T07:06:02.066Z,18.47
2018-12-01T07:08:07.182Z,14.47
2018-12-01T07:10:13.362Z,13.10
2018-12-01T07:12:18.113Z,13.93
2018-12-01T07:14:22.431Z,17.30
2018-12-01T07:16:27.103Z,17.33
2018-12-01T07:18:42.904Z,19.37
2018-12-01T07:20:47.267Z,17.67
2018-12-01T07:22:51.688Z,19.00
2018-12-01T07:24:55.976Z,14.50
2018-12-01T07:27:00.201Z,18.23
2018-12-01T07:29:04.535Z,11.87
2018-12-01T07:31:09.015Z,14.87
2018-12-01T07:33:13.335Z,24.40
2018-12-01T07:35:17.778Z,17.63
2018-12-01T07:37:22.193Z,12.63
2018-12-01T07:39:26.595Z,21.63
2018-12-01T07:41:30.739Z,15.53
2018-12-01T07:43:35.049Z,17.90
2018-12-01T07:45:39.350Z,18.90
2018-12-01T07:47:43.741Z,16.57
2018-12-01T07:49:48.076Z,18.00
2018-12-01T07:51:52.395Z,15.90
2018-12-01T07:53:56.738Z,23.60
2018-12-01T07:56:01.024Z,13.00
2018-12-01T07:58:05.432Z,22.13
2018-12-01T08:00:12.981Z,14.73
2018-12-01T08:02:17.455Z,22.90
2018-12-01T08:04:21.883Z,18.77
2018-12-01T08:06:26.119Z,20.47
2018-12-01T08:08:30.408Z,15.17
2018-12-01T08:10:34.813Z,26.90
2018-12-01T08:12:39.224Z,18.70
2018-12-01T08:14:43.653Z,15.10
2018-12-01T08:16:48.186Z,16.33
2018-12-01T08:18:52.544Z,21.43
2018-12-01T08:20:57.156Z,14.30
2018-12-01T08:23:01.430Z,19.13
2018-12-01T08:25:07.084Z,20.83
2018-12-01T08:27:11.569Z,15.27
2018-12-01T08:29:15.812Z,18.13
2018-12-01T08:31:19.896Z,29.60
2018-12-01T08:33:24.193Z,31.80
2018-12-01T08:35:29.646Z,25.20
2018-12-01T08:37:33.860Z,16.23
2018-12-01T08:39:38.300Z,19.67
2018-12-01T08:41:42.592Z,17.60
2018-12-01T08:43:46.987Z,17.40
2018-12-01T08:45:51.435Z,15.90
2018-12-01T08:47:55.821Z,16.47
2018-12-01T08:50:00.170Z,17.90
2018-12-01T08:52:04.879Z,14.00
2018-12-01T08:54:09.091Z,15.93
2018-12-01T08:56:13.340Z,19.97
2018-12-01T08:58:17.743Z,12.23
2018-12-01T09:00:25.452Z,17.27
2018-12-01T09:02:29.813Z,26.63
2018-12-01T09:04:34.112Z,13.67
2018-12-01T09:06:38.369Z,11.60
2018-12-01T09:08:42.663Z,22.33
2018-12-01T09:10:47.101Z,17.30
2018-12-01T09:12:51.496Z,19.23
2018-12-01T09:14:55.854Z,16.10
2018-12-01T09:17:00.230Z,14.83
2018-12-01T09:19:04.691Z,11.70
2018-12-01T09:21:08.860Z,12.13
2018-12-01T09:23:13.346Z,21.80
2018-12-01T09:25:18.551Z,17.83
2018-12-01T09:27:22.838Z,14.63
2018-12-01T09:29:26.823Z,19.43
2018-12-01T09:31:30.865Z,11.93
2018-12-01T09:33:34.880Z,14.93
2018-12-01T09:35:38.882Z,16.97
2018-12-01T09:37:43.055Z,15.00
2018-12-01T09:39:47.133Z,16.03
2018-12-01T09:41:51.466Z,12.77
2018-12-01T09:43:55.907Z,18.13
2018-12-01T09:46:00.359Z,14.67
2018-12-01T09:48:04.746Z,15.50
2018-12-01T09:50:12.058Z,21.63
2018-12-01T09:52:16.278Z,16.73
2018-12-01T09:54:20.569Z,16.93
2018-12-01T09:56:25.117Z,14.80
2018-12-01T09:58:29.504Z,11.40
2018-12-01T10:00:34.045Z,12.57
2018-12-01T10:02:38.301Z,12.03
2018-12-01T10:04:42.626Z,14.53
2018-12-01T10:06:46.903Z,10.30
2018-12-01T10:08:51.210Z,11.00
2018-12-01T10:10:55.682Z,9.77
2018-12-01T10:13:00.262Z,14.10
2018-12-01T10:15:05.622Z,17.13
2018-12-01T10:17:09.855Z,14.20
2018-12-01T10:19:14.103Z,15.70
2018-12-01T10:21:18.226Z,10.70
2018-12-01T10:23:22.648Z,10.60
2018-12-01T10:25:27.123Z,10.50
2018-12-01T10:27:31.435Z,10.90
2018-12-01T10:29:35.865Z,10.83
2018-12-01T10:31:40.585Z,6.93
2018-12-01T10:33:45.127Z,10.10
2018-12-01T10:35:49.518Z,14.83
2018-12-01T10:37:57.114Z,8.80
2018-12-01T10:40:01.311Z,8.57
2018-12-01T10:42:05.909Z,13.10
2018-12-01T10:44:10.203Z,6.40
2018-12-01T10:46:14.587Z,11.50
2018-12-01T10:48:18.855Z,10.33
2018-12-01T10:50:24.939Z,9.73
2018-12-01T10:52:29.225Z,20.93
2018-12-01T10:54:33.663Z,7.63
2018-12-01T10:56:37.991Z,6.53
2018-12-01T10:58:42.296Z,7.07
2018-12-01T11:00:52.638Z,7.23
2018-12-01T11:03:02.060Z,7.40
2018-12-01T11:05:06.481Z,5.90
2018-12-01T11:07:10.785Z,13.20
2018-12-01T11:09:15.151Z,7.83
2018-12-01T11:11:19.384Z,13.03
2018-12-01T11:13:24.094Z,9.30
2018-12-01T11:15:28.358Z,6.83
2018-12-01T11:17:32.814Z,8.73
2018-12-01T11:19:37.130Z,8.03
2018-12-01T11:21:41.497Z,8.30
2018-12-01T11:23:45.844Z,9.50
2018-12-01T11:25:50.196Z,5.70
2018-12-01T11:27:54.814Z,7.77
2018-12-01T11:29:59.307Z,5.10
2018-12-01T11:32:03.694Z,9.03
2018-12-01T11:34:08.042Z,8.23
2018-12-01T11:36:12.261Z,7.57
2018-12-01T11:38:16.585Z,5.63
2018-12-01T11:40:21.094Z,11.70
2018-12-01T11:42:25.431Z,8.83
2018-12-01T11:44:29.610Z,8.97
2018-12-01T11:46:33.939Z,5.77
2018-12-01T11:48:38.562Z,10.53
2018-12-01T11:50:43.142Z,4.83
2018-12-01T11:52:48.224Z,6.10
2018-12-01T11:54:52.679Z,7.67
2018-12-01T11:56:57.036Z,5.33
2018-12-01T11:59:01.320Z,10.53
2018-12-01T12:01:06.446Z,14.23
2018-12-01T12:03:10.811Z,7.03
2018-12-01T12:05:16.073Z,6.50
2018-12-01T12:07:31.384Z,6.03
2018-12-01T12:09:35.690Z,6.00
2018-12-01T12:11:40.063Z,5.97
2018-12-01T12:13:44.472Z,4.87
2018-12-01T12:15:49.303Z,8.47
2018-12-01T12:17:55.842Z,5.00
2018-12-01T12:20:00.193Z,7.17
2018-12-01T12:22:04.576Z,4.03
2018-12-01T12:24:08.891Z,8.07
2018-12-01T12:26:13.213Z,4.00
2018-12-01T12:28:17.631Z,6.40
2018-12-01T12:30:25.866Z,6.10
2018-12-01T12:32:26.791Z,4.90
2018-12-01T12:34:31.156Z,4.90
2018-12-01T12:36:35.407Z,9.13
2018-12-01T12:38:39.625Z,7.70
2018-12-01T12:40:44.069Z,5.20
2018-12-01T12:42:48.432Z,7.70
2018-12-01T12:44:53.015Z,6.73
2018-12-01T12:46:57.702Z,8.63
2018-12-01T12:49:02.806Z,7.67
2018-12-01T12:51:07.171Z,4.90
2018-12-01T12:53:11.500Z,6.47
2018-12-01T12:55:17.703Z,5.37
2018-12-01T12:57:22.034Z,9.33
2018-12-01T12:59:26.463Z,3.93
2018-12-01T13:01:30.887Z,5.80
2018-12-01T13:03:35.449Z,5.53
2018-12-01T13:05:41.991Z,10.63
2018-12-01T13:07:46.355Z,6.80
2018-12-01T13:09:50.699Z,7.27
2018-12-01T13:11:55.220Z,3.40
2018-12-01T13:13:59.458Z,6.63
2018-12-01T13:16:04.207Z,6.40
2018-12-01T13:18:10.872Z,6.37
2018-12-01T13:20:16.257Z,9.83
2018-12-01T13:22:22.232Z,7.87
2018-12-01T13:24:26.744Z,7.33
2018-12-01T13:26:31.136Z,8.97
2018-12-01T13:28:35.880Z,8.20
2018-12-01T13:30:44.214Z,8.33
2018-12-01T13:32:49.221Z,3.80
2018-12-01T13:34:53.610Z,4.70
2018-12-01T13:36:58.234Z,5.70
2018-12-01T13:39:02.884Z,5.83
2018-12-01T13:41:07.298Z,6.30
2018-12-01T13:43:12.035Z,8.20
2018-12-01T13:45:17.218Z,5.37
2018-12-01T13:47:21.918Z,6.13
2018-12-01T13:49:26.288Z,10.47
2018-12-01T13:51:30.722Z,7.47
2018-12-01T13:53:35.119Z,12.43
2018-12-01T13:55:39.400Z,6.77
2018-12-01T13:57:43.780Z,8.20
2018-12-01T13:59:48.267Z,8.13
2018-12-01T14:01:52.610Z,9.50
2018-12-01T14:03:56.920Z,5.43
2018-12-01T14:06:01.497Z,5.17
2018-12-01T14:08:06.190Z,6.00
2018-12-01T14:10:19.228Z,5.50
2018-12-01T14:12:23.538Z,4.80
2018-12-01T14:14:27.964Z,7.83
2018-12-01T14:16:32.224Z,6.50
2018-12-01T14:18:36.552Z,5.93
2018-12-01T14:20:40.796Z,3.67
2018-12-01T14:22:46.176Z,11.13
2018-12-01T14:24:50.594Z,12.10
2018-12-01T14:26:54.914Z,11.63
2018-12-01T14:28:59.332Z,6.93
2018-12-01T14:31:03.673Z,6.10
2018-12-01T14:33:08.840Z,9.30
2018-12-01T14:35:15.405Z,10.40
2018-12-01T14:37:19.793Z,5.30
2018-12-01T14:39:24.156Z,8.30
2018-12-01T14:41:28.488Z,7.47
2018-12-01T14:43:32.765Z,7.33
2018-12-01T14:45:37.206Z,10.40
2018-12-01T14:47:41.568Z,12.30
2018-12-01T14:49:45.861Z,6.93
2018-12-01T14:51:50.149Z,6.87
2018-12-01T14:53:54.586Z,9.13
2018-12-01T14:55:58.855Z,9.00
2018-12-01T14:58:03.083Z,12.03
2018-12-01T15:00:19.891Z,6.40
2018-12-01T15:02:24.255Z,11.70
2018-12-01T15:04:28.661Z,7.00
2018-12-01T15:06:33.144Z,12.13
2018-12-01T15:08:37.555Z,8.97
2018-12-01T15:10:41.992Z,9.47
2018-12-01T15:12:46.352Z,9.47
2018-12-01T15:14:50.691Z,17.23
2018-12-01T15:16:54.924Z,8.50
2018-12-01T15:18:59.270Z,8.37
2018-12-01T15:21:03.673Z,9.73
2018-12-01T15:23:08.505Z,10.13
2018-12-01T15:25:15.892Z,11.43
2018-12-01T15:27:20.355Z,10.67
2018-12-01T15:29:25.070Z,14.67
2018-12-01T15:31:29.427Z,11.50
2018-12-01T15:33:34.947Z,13.47
2018-12-01T15:35:39.624Z,9.00
2018-12-01T15:37:45.138Z,8.87
2018-12-01T15:39:49.420Z,11.33
2018-12-01T15:41:53.898Z,17.80
2018-12-01T15:43:58.126Z,16.20
2018-12-01T15:46:02.737Z,8.03
2018-12-01T15:48:07.569Z,9.90
2018-12-01T15:50:16.073Z,11.77
2018-12-01T15:52:20.675Z,8.13
2018-12-01T15:54:25.103Z,14.00
2018-12-01T15:56:29.401Z,5.33
2018-12-01T15:58:33.899Z,12.67
2018-12-01T16:00:39.034Z,13.70
2018-12-01T16:02:43.590Z,9.00
2018-12-01T16:04:48.835Z,6.20
2018-12-01T16:06:53.235Z,8.90
2018-12-01T16:08:57.554Z,8.93
2018-12-01T16:11:02.713Z,9.50
2018-12-01T16:13:11.495Z,8.87
2018-12-01T16:15:18.745Z,11.53
2018-12-01T16:17:23.213Z,4.77
2018-12-01T16:19:27.438Z,8.00
2018-12-01T16:21:31.840Z,9.67
2018-12-01T16:23:36.038Z,8.93
2018-12-01T16:25:40.793Z,13.33
2018-12-01T16:27:46.289Z,8.37
2018-12-01T16:29:51.499Z,6.73
2018-12-01T16:31:55.778Z,8.17
2018-12-01T16:34:00.435Z,12.83
2018-12-01T16:36:05.033Z,11.03
2018-12-01T16:38:11.012Z,13.97
2018-12-01T16:40:30.538Z,8.63
2018-12-01T16:42:34.848Z,9.03
2018-12-01T16:44:39.340Z,13.60
2018-12-01T16:46:43.899Z,15.03
2018-12-01T16:48:48.193Z,6.97
2018-12-01T16:50:52.571Z,9.10
2018-12-01T16:52:56.769Z,9.83
2018-12-01T16:55:01.219Z,7.23
2018-12-01T16:57:05.597Z,14.83
2018-12-01T16:59:10.113Z,10.20
2018-12-01T17:01:14.504Z,6.50
2018-12-01T17:03:19.004Z,5.80
2018-12-01T17:05:25.343Z,7.50
2018-12-01T17:07:30.605Z,8.20
2018-12-01T17:09:34.821Z,9.23
2018-12-01T17:11:43.381Z,11.80
2018-12-01T17:13:47.760Z,12.17
2018-12-01T17:15:52.421Z,6.23
2018-12-01T17:17:57.488Z,4.20
2018-12-01T17:20:02.019Z,8.43
2018-12-01T17:22:06.947Z,7.90
2018-12-01T17:24:11.464Z,10.30
2018-12-01T17:26:15.835Z,7.73
2018-12-01T17:28:20.807Z,9.83
2018-12-01T17:30:26.111Z,10.43
2018-12-01T17:32:30.648Z,13.50
2018-12-01T17:34:35.002Z,5.93
2018-12-01T17:36:39.677Z,5.57
2018-12-01T17:38:44.342Z,11.60
2018-12-01T17:41:06.649Z,6.60
2018-12-01T17:43:12.520Z,7.63
2018-12-01T17:45:16.851Z,9.43
2018-12-01T17:47:21.265Z,7.43
2018-12-01T17:49:25.697Z,9.30
2018-12-01T17:51:29.907Z,9.73
2018-12-01T17:53:34.347Z,7.40
2018-12-01T17:55:38.733Z,10.60
2018-12-01T17:57:43.537Z,10.60
2018-12-01T17:59:47.856Z,11.13
2018-12-01T18:01:52.322Z,7.40
2018-12-01T18:03:57.000Z,8.93
2018-12-01T18:06:01.658Z,7.97
2018-12-01T18:08:07.724Z,5.47
2018-12-01T18:10:13.369Z,6.43
2018-12-01T18:12:17.772Z,12.57
2018-12-01T18:14:22.243Z,6.17
2018-12-01T18:16:26.688Z,8.17
2018-12-01T18:18:31.295Z,10.27
2018-12-01T18:20:35.735Z,7.30
2018-12-01T18:22:40.048Z,4.90
2018-12-01T18:24:44.471Z,6.33
2018-12-01T18:26:49.125Z,8.90
2018-12-01T18:28:53.704Z,10.87
2018-12-01T18:30:58.455Z,12.83
2018-12-01T18:33:09.077Z,4.83
2018-12-01T18:35:14.127Z,5.67
2018-12-01T18:37:17.628Z,6.33
2018-12-01T18:39:21.853Z,7.40
2018-12-01T18:41:26.357Z,12.30
2018-12-01T18:43:30.889Z,5.90
2018-12-01T18:45:35.499Z,9.60
2018-12-01T18:47:39.866Z,11.20
2018-12-01T18:49:44.101Z,4.90
2018-12-01T18:51:48.541Z,6.77
2018-12-01T18:53:53.074Z,5.10
2018-12-01T18:55:58.026Z,10.90
2018-12-01T18:58:02.574Z,5.23
2018-12-01T19:00:15.814Z,4.37
2018-12-01T19:02:20.366Z,9.53
2018-12-01T19:04:24.735Z,6.93
2018-12-01T19:06:29.399Z,3.90
2018-12-01T19:08:33.842Z,8.00
2018-12-01T19:10:38.541Z,5.57
2018-12-01T19:12:42.943Z,6.73
2018-12-01T19:14:47.473Z,7.03
2018-12-01T19:16:51.749Z,8.00
2018-12-01T19:18:56.921Z,7.70
2018-12-01T19:21:01.240Z,4.60
2018-12-01T19:23:06.253Z,7.30
2018-12-01T19:25:15.353Z,6.17
2018-12-01T19:27:19.954Z,6.60
2018-12-01T19:29:24.610Z,5.50
2018-12-01T19:31:29.417Z,4.13
2018-12-01T19:33:34.294Z,4.33
2018-12-01T19:35:38.902Z,8.90
2018-12-01T19:37:43.763Z,3.87
2018-12-01T19:39:48.258Z,5.30
2018-12-01T19:41:54.160Z,8.57
2018-12-01T19:43:58.873Z,5.97
2018-12-01T19:46:03.555Z,10.13
2018-12-01T19:48:09.242Z,6.87
2018-12-01T19:50:19.317Z,5.63
2018-12-01T19:52:23.896Z,7.60
2018-12-01T19:54:28.456Z,7.10
2018-12-01T19:56:32.705Z,8.80
2018-12-01T19:58:37.368Z,5.50
2018-12-01T20:00:43.065Z,7.07
2018-12-01T20:02:47.629Z,5.57
2018-12-01T20:04:52.349Z,6.17
2018-12-01T20:06:57.135Z,5.47
2018-12-01T20:09:01.792Z,6.73
2018-12-01T20:11:08.659Z,6.20
2018-12-01T20:13:16.661Z,6.40
2018-12-01T20:15:28.478Z,10.40
2018-12-01T20:17:33.213Z,5.97
2018-12-01T20:19:37.916Z,6.77
2018-12-01T20:21:42.555Z,4.03
2018-12-01T20:23:47.030Z,5.97
2018-12-01T20:25:52.152Z,4.67
2018-12-01T20:27:56.607Z,1.67
2018-12-01T20:30:01.366Z,2.30
2018-12-01T20:32:05.707Z,1.90
2018-12-01T20:34:10.127Z,4.57
2018-12-01T20:36:22.645Z,3.70
2018-12-01T20:38:35.599Z,2.07
2018-12-01T20:40:39.868Z,2.50
2018-12-01T20:42:44.089Z,1.10
2018-12-01T20:44:48.422Z,8.17
2018-12-01T20:46:52.996Z,1.10
2018-12-01T20:48:57.302Z,1.13
2018-12-01T20:51:01.749Z,1.53
2018-12-01T20:53:06.812Z,2.10
2018-12-01T20:55:14.897Z,1.87
2018-12-01T20:57:22.671Z,1.83
2018-12-01T20:59:27.240Z,1.10
2018-12-01T21:01:31.835Z,1.00
2018-12-01T21:03:36.234Z,2.40
2018-12-01T21:05:40.549Z,0.90
2018-12-01T21:07:45.212Z,0.97
2018-12-01T21:09:49.499Z,1.60
2018-12-01T21:11:53.873Z,1.43
2018-12-01T21:13:58.331Z,8.23
2018-12-01T21:16:02.668Z,4.63
2018-12-01T21:18:06.984Z,2.03
2018-12-01T21:20:14.297Z,1.07
2018-12-01T21:22:18.769Z,1.90
2018-12-01T21:24:23.186Z,2.70
2018-12-01T21:26:27.581Z,1.23
2018-12-01T21:28:32.120Z,1.27
2018-12-01T21:30:36.537Z,2.80
2018-12-01T21:32:40.741Z,1.70
2018-12-01T21:34:45.069Z,1.70
2018-12-01T21:36:49.476Z,1.00
2018-12-01T21:38:53.810Z,1.50
2018-12-01T21:40:58.110Z,1.30
2018-12-01T21:43:02.342Z,1.57
2018-12-01T21:45:09.271Z,1.37
2018-12-01T21:47:13.629Z,1.47
2018-12-01T21:49:18.036Z,0.97
2018-12-01T21:51:22.667Z,1.33
2018-12-01T21:53:27.363Z,1.10
2018-12-01T21:55:31.647Z,1.10
2018-12-01T21:57:36.204Z,4.53
2018-12-01T21:59:40.840Z,3.23
2018-12-01T22:01:45.259Z,0.93
2018-12-01T22:03:49.781Z,1.97
2018-12-01T22:05:58.727Z,1.53
2018-12-01T22:08:02.967Z,1.70
2018-12-01T22:10:10.708Z,0.90
2018-12-01T22:12:15.306Z,1.10
2018-12-01T22:14:19.626Z,1.00
2018-12-01T22:16:23.853Z,0.87
2018-12-01T22:18:28.255Z,0.80
2018-12-01T22:20:32.746Z,1.00
2018-12-01T22:22:37.313Z,1.33
2018-12-01T22:24:41.713Z,1.83
2018-12-01T22:26:46.349Z,0.83
2018-12-01T22:28:52.053Z,0.90
2018-12-01T22:30:56.397Z,1.03
2018-12-01T22:33:01.151Z,0.87
2018-12-01T22:35:05.651Z,1.83
2018-12-01T22:37:10.056Z,1.30
2018-12-01T22:39:14.451Z,1.10
2018-12-01T22:41:18.762Z,0.90
2018-12-01T22:43:23.186Z,1.00
2018-12-01T22:45:27.717Z,0.80
2018-12-01T22:47:32.048Z,0.90
2018-12-01T22:49:36.884Z,0.80
2018-12-01T22:51:41.272Z,2.33
2018-12-01T22:53:45.597Z,1.63
2018-12-01T22:55:49.884Z,0.80
2018-12-01T22:57:56.298Z,0.90
2018-12-01T23:00:00.386Z,0.90
2018-12-01T23:02:04.727Z,0.80
2018-12-01T23:04:09.199Z,0.80
2018-12-01T23:06:13.719Z,0.80
2018-12-01T23:08:19.282Z,1.83
2018-12-01T23:10:23.578Z,0.80
2018-12-01T23:12:27.909Z,1.57
2018-12-01T23:14:32.204Z,0.80
2018-12-01T23:16:36.736Z,1.63
2018-12-01T23:18:41.143Z,0.80
2018-12-01T23:20:46.639Z,1.00
2018-12-01T23:22:51.598Z,0.90
2018-12-01T23:24:55.850Z,0.73
2018-12-01T23:27:00.244Z,1.67
2018-12-01T23:29:04.638Z,1.63
2018-12-01T23:31:08.984Z,1.73
2018-12-01T23:33:15.409Z,1.00
2018-12-01T23:35:19.771Z,1.13
2018-12-01T23:37:24.053Z,0.70
2018-12-01T23:39:28.300Z,0.80
2018-12-01T23:41:32.511Z,1.03
2018-12-01T23:43:36.908Z,1.93
2018-12-01T23:45:42.519Z,0.80
2018-12-01T23:47:47.606Z,0.80
2018-12-01T23:49:52.023Z,0.90
2018-12-01T23:51:56.435Z,0.70
2018-12-01T23:54:00.644Z,0.77
2018-12-01T23:56:04.897Z,1.10
2018-12-01T23:58:09.180Z,0.80
